Terminal Aerodrome Forecast
Issued by NWS Wilmington, OH

Current Version | Previous Version | Text Only | Print | Product List | Glossary Off
Versions: 1 2 3 4 5 6 7 8 9 10 11 12 13 14 15 16 17 18 19 20 21 22 23 24

000
FTUS41 KILN 251023 AAB
TAFCVG
TAF AMD
KCVG 251023Z 2510/2612 26012KT P6SM BKN040
     FM251200 26015G25KT P6SM OVC025
     FM251800 27014G22KT P6SM OVC035
     FM260000 28012KT P6SM BKN040
     FM260600 28008KT P6SM SCT040=

USA.gov is the U.S. government's official web portal to all federal, state and local government web resources and services.